Time;durP1;ratioP1;P1;durP2;ratioP2;P2;SDS_P1;SDS_P2;PMS_P1;PMS_P2;Temp;Humidity;BMP_temperature;BMP_pressure;BME280_temperature;BME280_humidity;BME280_pressure;Samples;Min_cycle;Max_cycle;Signal;HPM_P1;HPM_P2
2021/03/24 00:02:25;;;;;;;5.60;4.65;;;17.70;55.90;;;;;;10462296;28;20056;-60
2021/03/24 00:07:26;;;;;;;6.38;4.47;;;17.70;55.80;;;;;;10469685;28;20477;-59
2021/03/24 00:12:26;;;;;;;5.72;4.88;;;17.70;55.80;;;;;;10479719;28;20047;-60
2021/03/24 00:17:27;;;;;;;6.28;4.80;;;17.70;55.80;;;;;;10486334;28;20480;-61
2021/03/24 00:22:28;;;;;;;5.68;4.07;;;17.70;55.80;;;;;;10495953;28;20498;-59
2021/03/24 00:27:28;;;;;;;5.72;4.38;;;17.70;55.80;;;;;;10461653;28;20029;-59
2021/03/24 00:32:29;;;;;;;5.68;4.85;;;17.70;55.80;;;;;;10459553;28;20120;-59
2021/03/24 00:37:30;;;;;;;5.25;4.75;;;17.70;55.60;;;;;;10480215;28;20094;-59
2021/03/24 00:42:31;;;;;;;5.13;4.47;;;17.70;55.50;;;;;;10462514;28;20028;-59
2021/03/24 00:47:31;;;;;;;5.65;4.47;;;17.70;55.50;;;;;;10502274;28;20036;-59
2021/03/24 00:52:32;;;;;;;4.70;4.07;;;17.70;55.50;;;;;;10492990;28;20044;-60
2021/03/24 00:57:33;;;;;;;5.35;4.15;;;17.70;55.40;;;;;;10460383;28;20524;-60
2021/03/24 01:02:33;;;;;;;6.50;4.57;;;17.70;55.30;;;;;;10460010;28;20037;-60
2021/03/24 01:07:34;;;;;;;5.63;4.15;;;17.70;55.30;;;;;;10496077;28;20035;-59
2021/03/24 01:12:35;;;;;;;5.43;3.97;;;17.70;55.20;;;;;;10477793;28;20071;-60
2021/03/24 01:17:35;;;;;;;5.82;5.00;;;17.70;55.20;;;;;;10463868;28;20065;-60
2021/03/24 01:22:36;;;;;;;5.57;3.70;;;17.80;55.10;;;;;;10491391;28;20044;-60
2021/03/24 01:27:37;;;;;;;5.03;3.67;;;17.80;55.10;;;;;;10459571;28;20548;-59
2021/03/24 01:32:38;;;;;;;5.35;3.85;;;17.80;55.00;;;;;;10475441;28;20028;-60
2021/03/24 01:37:40;;;;;;;6.72;4.43;;;17.80;55.00;;;;;;10476534;28;20036;-59
2021/03/24 01:42:40;;;;;;;5.05;3.70;;;17.80;55.00;;;;;;10462402;28;20044;-59
2021/03/24 01:47:43;;;;;;;5.18;4.35;;;17.80;54.90;;;;;;10493153;28;20115;-60
2021/03/24 01:52:44;;;;;;;5.38;4.13;;;17.80;54.90;;;;;;10491108;28;20033;-60
2021/03/24 01:57:46;;;;;;;4.90;3.80;;;17.80;54.80;;;;;;10456915;28;20040;-60
2021/03/24 02:02:46;;;;;;;5.03;4.00;;;17.80;54.70;;;;;;10457790;28;20033;-60
2021/03/24 02:08:02;;;;;;;5.45;4.03;;;17.80;54.70;;;;;;10494901;28;20028;-59
2021/03/24 02:13:19;;;;;;;5.68;4.15;;;17.80;54.70;;;;;;10470761;28;20094;-60
2021/03/24 02:18:23;;;;;;;4.82;3.60;;;17.80;54.70;;;;;;10469452;28;20047;-59
2021/03/24 02:23:38;;;;;;;4.63;4.13;;;17.80;54.70;;;;;;10461412;28;20044;-60
2021/03/24 02:28:42;;;;;;;4.80;3.95;;;17.80;54.60;;;;;;10496889;28;20036;-59
2021/03/24 02:33:45;;;;;;;5.07;4.18;;;17.80;54.60;;;;;;10479031;28;20028;-59
2021/03/24 02:38:48;;;;;;;4.82;3.83;;;17.90;54.60;;;;;;10454973;28;20047;-60
2021/03/24 02:43:51;;;;;;;6.25;4.57;;;17.80;54.50;;;;;;10467509;28;20097;-59
2021/03/24 02:48:52;;;;;;;6.15;4.40;;;17.90;54.50;;;;;;10487872;28;20385;-59
2021/03/24 02:53:53;;;;;;;4.43;4.00;;;17.80;54.50;;;;;;10476405;28;20056;-59
2021/03/24 02:58:54;;;;;;;5.40;3.95;;;17.80;54.50;;;;;;10484481;28;20532;-58
2021/03/24 03:04:25;;;;;;;5.35;3.95;;;17.80;54.50;;;;;;10464743;28;20036;-59
2021/03/24 03:09:48;;;;;;;4.68;3.72;;;17.80;54.50;;;;;;10492908;28;20079;-59
2021/03/24 03:14:58;;;;;;;5.80;4.78;;;17.80;54.40;;;;;;10481604;28;20025;-59
2021/03/24 03:20:10;;;;;;;6.13;3.72;;;17.80;54.50;;;;;;10486620;28;20028;-59
2021/03/24 03:25:16;;;;;;;4.50;3.63;;;17.80;54.40;;;;;;10464238;28;20448;-59
2021/03/24 03:30:22;;;;;;;5.25;4.43;;;17.80;54.40;;;;;;10454003;28;20035;-59
2021/03/24 03:35:25;;;;;;;5.63;3.67;;;17.80;54.50;;;;;;10475163;28;20040;-59
2021/03/24 03:40:29;;;;;;;4.50;3.85;;;17.80;54.40;;;;;;10453963;28;20773;-62
2021/03/24 03:45:31;;;;;;;5.35;4.13;;;17.80;54.40;;;;;;10481398;28;20060;-59
2021/03/24 03:50:31;;;;;;;6.30;4.63;;;17.80;54.30;;;;;;10488859;28;20036;-59
2021/03/24 03:56:14;;;;;;;5.85;4.53;;;17.80;54.30;;;;;;10478341;28;20028;-59
2021/03/24 04:01:22;;;;;;;6.45;4.50;;;17.80;54.20;;;;;;10480375;28;20029;-59
2021/03/24 04:06:35;;;;;;;5.43;3.50;;;17.80;54.30;;;;;;10466698;28;20033;-60
2021/03/24 04:11:48;;;;;;;6.95;4.65;;;17.80;54.30;;;;;;10474653;28;20112;-59
2021/03/24 04:16:50;;;;;;;5.28;4.30;;;17.80;54.30;;;;;;10486018;28;20037;-59
2021/03/24 04:22:02;;;;;;;5.93;4.75;;;17.80;54.30;;;;;;10460489;28;20485;-59
2021/03/24 04:27:05;;;;;;;5.38;3.90;;;17.80;54.30;;;;;;10496003;28;20358;-59
2021/03/24 04:32:07;;;;;;;6.15;4.40;;;17.80;54.20;;;;;;10495584;28;20039;-59
2021/03/24 04:37:37;;;;;;;5.53;4.53;;;17.80;54.20;;;;;;10491221;28;20520;-60
2021/03/24 04:42:42;;;;;;;5.50;4.95;;;17.80;54.20;;;;;;10488541;28;20100;-59
2021/03/24 04:47:50;;;;;;;5.45;3.65;;;17.80;54.10;;;;;;10461270;28;20029;-59
2021/03/24 04:52:52;;;;;;;6.75;5.13;;;17.80;54.10;;;;;;10465842;28;20032;-59
2021/03/24 04:58:00;;;;;;;6.70;5.07;;;17.80;54.20;;;;;;10513666;28;20028;-59
2021/03/24 05:03:11;;;;;;;7.55;4.75;;;17.80;54.10;;;;;;10470093;28;20123;-59
2021/03/24 05:08:44;;;;;;;6.78;5.13;;;17.80;54.10;;;;;;10467078;28;20032;-59
2021/03/24 05:14:40;;;;;;;7.32;5.03;;;17.80;54.70;;;;;;10457650;28;20052;-59
2021/03/24 05:19:42;;;;;;;5.80;4.47;;;17.80;54.00;;;;;;10458909;28;20154;-60
2021/03/24 05:24:44;;;;;;;5.50;4.72;;;17.80;54.00;;;;;;10455523;28;20150;-59
2021/03/24 05:29:50;;;;;;;6.43;4.70;;;17.80;53.90;;;;;;10458202;28;20044;-59
2021/03/24 05:34:56;;;;;;;6.35;4.60;;;17.80;54.00;;;;;;10479512;28;20051;-59
2021/03/24 05:40:38;;;;;;;7.70;5.15;;;17.80;54.00;;;;;;10452068;28;20102;-60
2021/03/24 05:46:30;;;;;;;6.25;4.70;;;17.80;54.00;;;;;;10458180;28;20040;-59
2021/03/24 05:51:37;;;;;;;9.60;5.65;;;17.80;54.30;;;;;;10456248;28;20036;-61
2021/03/24 05:57:17;;;;;;;7.78;5.40;;;17.80;55.40;;;;;;10455385;28;20377;-61
2021/03/24 06:02:44;;;;;;;11.52;4.97;;;17.80;55.40;;;;;;10458402;28;20036;-60
2021/03/24 06:08:12;;;;;;;9.85;4.80;;;17.90;55.90;;;;;;10455501;28;20021;-59
2021/03/24 06:13:49;;;;;;;11.55;5.25;;;17.80;57.00;;;;;;10457951;28;20037;-59
2021/03/24 06:19:32;;;;;;;8.23;5.60;;;17.90;57.60;;;;;;10470233;28;20381;-61
2021/03/24 06:24:54;;;;;;;10.45;5.35;;;17.90;57.70;;;;;;10448696;28;20508;-59
2021/03/24 06:30:43;;;;;;;9.30;4.93;;;17.80;57.30;;;;;;10476392;28;20032;-62
2021/03/24 06:36:28;;;;;;;13.25;6.65;;;17.90;57.40;;;;;;10473187;28;20405;-58
2021/03/24 06:41:57;;;;;;;8.55;5.13;;;17.80;56.60;;;;;;10476745;28;20439;-59
2021/03/24 06:47:35;;;;;;;10.63;5.75;;;17.80;56.60;;;;;;10497493;28;20036;-57
2021/03/24 06:53:25;;;;;;;18.20;6.00;;;17.70;56.30;;;;;;10456512;28;20424;-58
2021/03/24 06:58:53;;;;;;;13.57;6.53;;;17.70;56.20;;;;;;10454980;28;20082;-59
2021/03/24 07:04:19;;;;;;;20.17;6.88;;;17.70;57.50;;;;;;10464362;28;20024;-59
2021/03/24 07:09:37;;;;;;;23.25;6.30;;;17.70;57.50;;;;;;10460408;28;20060;-58
2021/03/24 07:15:14;;;;;;;16.75;5.57;;;17.70;56.80;;;;;;10468398;28;20558;-57
2021/03/24 07:20:50;;;;;;;16.13;6.00;;;17.70;56.50;;;;;;10467100;28;20053;-57
2021/03/24 07:26:22;;;;;;;12.75;6.63;;;17.70;56.40;;;;;;10453653;28;20029;-58
2021/03/24 07:31:39;;;;;;;13.30;6.22;;;17.70;56.30;;;;;;10446003;28;20473;-58
2021/03/24 07:37:46;;;;;;;11.25;5.43;;;17.60;56.20;;;;;;10452493;28;20041;-58
2021/03/24 07:43:06;;;;;;;11.60;6.88;;;17.60;56.20;;;;;;10432207;28;20478;-57
2021/03/24 07:48:53;;;;;;;16.77;6.00;;;17.60;56.10;;;;;;10465852;28;20025;-58
2021/03/24 07:54:25;;;;;;;11.77;7.28;;;17.60;55.90;;;;;;10485237;28;20025;-57
2021/03/24 07:59:50;;;;;;;9.45;5.82;;;17.60;55.90;;;;;;10474960;28;20036;-57
2021/03/24 08:05:16;;;;;;;9.13;6.50;;;17.60;55.80;;;;;;10489813;28;20107;-57
2021/03/24 08:10:25;;;;;;;8.60;6.25;;;17.60;55.70;;;;;;10498221;28;20506;-58
2021/03/24 08:15:54;;;;;;;12.17;5.97;;;17.60;55.70;;;;;;10502792;28;20482;-57
2021/03/24 08:21:11;;;;;;;9.18;5.75;;;17.60;55.70;;;;;;10492929;28;20048;-57
2021/03/24 08:26:27;;;;;;;12.55;6.30;;;17.60;55.70;;;;;;10462249;28;20048;-57
2021/03/24 08:32:15;;;;;;;11.35;6.50;;;17.60;56.90;;;;;;10456569;28;20032;-57
2021/03/24 08:37:52;;;;;;;12.05;6.85;;;17.60;55.70;;;;;;10477521;28;20785;-56
2021/03/24 08:43:07;;;;;;;12.25;7.07;;;17.60;56.10;;;;;;10492255;28;20025;-56
2021/03/24 08:48:20;;;;;;;15.15;8.52;;;17.60;56.50;;;;;;10481447;28;20037;-56
2021/03/24 08:53:30;;;;;;;17.58;9.70;;;17.60;56.60;;;;;;10458799;28;20048;-56
2021/03/24 08:58:40;;;;;;;11.75;7.47;;;17.60;57.00;;;;;;10474987;28;20064;-56
2021/03/24 09:04:05;;;;;;;12.85;8.35;;;17.60;57.20;;;;;;10463852;28;20032;-57
2021/03/24 09:09:33;;;;;;;10.25;8.13;;;17.70;57.50;;;;;;10466453;28;20558;-56
2021/03/24 09:14:42;;;;;;;15.85;9.70;;;17.80;58.30;;;;;;10457294;28;20489;-56
2021/03/24 09:20:12;;;;;;;14.98;10.00;;;17.70;58.80;;;;;;10464613;28;20078;-56
2021/03/24 09:25:46;;;;;;;18.85;9.75;;;17.80;60.40;;;;;;10463000;28;20028;-56
2021/03/24 09:30:49;;;;;;;15.23;9.98;;;17.80;62.10;;;;;;10484360;28;20037;-57
2021/03/24 09:36:41;;;;;;;17.35;9.90;;;17.90;61.60;;;;;;10457348;28;20037;-55
2021/03/24 09:41:51;;;;;;;17.95;9.85;;;17.90;62.00;;;;;;10458345;28;20036;-57
2021/03/24 09:46:54;;;;;;;15.48;9.95;;;17.90;62.70;;;;;;10468239;28;20082;-56
2021/03/24 09:52:25;;;;;;;15.88;10.18;;;17.90;63.00;;;;;;10476279;28;20033;-55
2021/03/24 09:58:02;;;;;;;22.95;9.98;;;17.80;61.40;;;;;;10466566;28;20033;-56
2021/03/24 10:03:18;;;;;;;14.32;8.93;;;17.70;60.60;;;;;;10456669;28;20104;-55
2021/03/24 10:08:28;;;;;;;12.50;8.15;;;17.60;60.60;;;;;;10471752;28;20021;-54
2021/03/24 10:13:35;;;;;;;14.10;9.02;;;17.60;60.60;;;;;;10464799;28;20029;-55
2021/03/24 10:19:01;;;;;;;14.40;9.20;;;17.60;60.60;;;;;;10459522;28;20040;-55
2021/03/24 10:24:16;;;;;;;14.43;9.40;;;17.60;60.50;;;;;;10472564;28;20048;-55
2021/03/24 10:29:26;;;;;;;13.07;9.48;;;17.60;60.40;;;;;;10455974;28;20390;-55
2021/03/24 10:34:33;;;;;;;16.30;9.93;;;17.60;60.40;;;;;;10467430;28;20025;-55
2021/03/24 10:40:25;;;;;;;12.38;8.20;;;17.60;60.30;;;;;;10455158;28;20040;-55
2021/03/24 10:45:44;;;;;;;11.95;8.35;;;17.60;60.20;;;;;;10465460;28;20056;-55
2021/03/24 10:51:18;;;;;;;11.35;9.02;;;17.60;60.10;;;;;;10458661;28;20035;-55
2021/03/24 10:56:35;;;;;;;14.18;8.48;;;17.60;60.20;;;;;;10466005;28;20040;-55
2021/03/24 11:01:54;;;;;;;9.40;7.72;;;17.60;60.20;;;;;;10469688;28;20112;-55
2021/03/24 11:07:09;;;;;;;17.20;8.13;;;17.60;60.10;;;;;;10454911;28;20040;-55
2021/03/24 11:12:14;;;;;;;14.50;8.20;;;17.60;60.00;;;;;;10458521;28;20156;-55
2021/03/24 11:17:23;;;;;;;11.10;7.63;;;17.60;60.00;;;;;;10454713;28;20111;-55
2021/03/24 11:22:44;;;;;;;10.80;8.10;;;17.60;59.80;;;;;;10450043;28;20209;-56
2021/03/24 11:27:51;;;;;;;11.60;8.57;;;17.80;64.10;;;;;;10451629;28;20029;-57
2021/03/24 11:33:28;;;;;;;12.93;7.35;;;17.90;66.40;;;;;;10461273;28;20048;-59
2021/03/24 11:38:48;;;;;;;9.65;7.93;;;18.10;65.50;;;;;;10464468;28;20044;-58
2021/03/24 11:44:10;;;;;;;11.43;7.28;;;18.20;64.60;;;;;;10485102;28;20048;-56
2021/03/24 11:49:19;;;;;;;8.93;6.95;;;18.30;63.50;;;;;;10437035;28;20098;-57
2021/03/24 11:54:36;;;;;;;;;;;18.30;62.20;;;;;;10455159;28;20060;-56
2021/03/24 12:00:08;;;;;;;10.23;6.82;;;18.20;62.20;;;;;;10449769;28;19956;-57
2021/03/24 12:05:28;;;;;;;13.55;7.28;;;18.10;62.20;;;;;;10448135;28;20541;-56
2021/03/24 12:10:37;;;;;;;11.18;7.75;;;18.00;62.30;;;;;;10464070;28;20040;-57
2021/03/24 12:15:42;;;;;;;10.82;8.85;;;18.00;62.20;;;;;;10481710;28;20539;-56
2021/03/24 12:20:56;;;;;;;11.48;7.07;;;18.00;62.30;;;;;;10453624;28;20049;-56
2021/03/24 12:25:59;;;;;;;8.98;6.32;;;18.00;62.20;;;;;;10451901;28;20032;-56
2021/03/24 12:31:11;;;;;;;18.65;7.22;;;18.00;62.10;;;;;;10457178;28;20045;-55
2021/03/24 12:36:19;;;;;;;10.52;6.18;;;18.00;62.00;;;;;;10460845;28;20079;-55
2021/03/24 12:41:38;;;;;;;10.95;6.13;;;18.00;62.10;;;;;;10460876;28;20083;-57
2021/03/24 12:47:35;;;;;;;11.87;7.03;;;18.00;62.00;;;;;;10460653;28;20037;-56
2021/03/24 12:52:44;;;;;;;13.85;7.45;;;18.00;61.80;;;;;;10458599;28;20041;-56
2021/03/24 12:58:22;;;;;;;8.93;6.07;;;18.00;61.70;;;;;;10458501;28;20411;-56
2021/03/24 13:03:59;;;;;;;10.00;6.57;;;18.00;61.60;;;;;;10466252;28;20040;-57
2021/03/24 13:09:21;;;;;;;10.77;6.18;;;18.10;61.50;;;;;;10446651;28;20443;-56
2021/03/24 13:15:06;;;;;;;10.48;6.07;;;18.00;61.40;;;;;;10470734;28;20083;-57
2021/03/24 13:20:36;;;;;;;9.35;6.70;;;18.00;61.30;;;;;;10448566;28;20124;-57
2021/03/24 13:25:56;;;;;;;9.80;6.13;;;18.00;61.00;;;;;;10469511;28;20062;-57
2021/03/24 13:31:10;;;;;;;8.00;6.53;;;18.00;61.00;;;;;;10458076;28;20036;-56
2021/03/24 13:36:26;;;;;;;12.43;5.80;;;18.00;60.80;;;;;;10457449;28;20036;-57
2021/03/24 13:41:27;;;;;;;14.75;7.60;;;18.00;60.60;;;;;;10458020;28;20037;-56
2021/03/24 13:46:34;;;;;;;17.35;6.50;;;18.00;60.70;;;;;;10456564;28;20033;-55
2021/03/24 13:51:39;;;;;;;16.15;7.28;;;18.00;60.80;;;;;;10456900;28;20419;-56
2021/03/24 13:57:36;;;;;;;17.77;7.63;;;18.00;60.80;;;;;;10456559;28;20037;-56
2021/03/24 14:03:08;;;;;;;14.05;6.78;;;18.00;60.70;;;;;;10450956;28;20036;-56
2021/03/24 14:08:22;;;;;;;13.05;7.68;;;18.00;60.70;;;;;;10457387;28;20060;-57
2021/03/24 14:13:53;;;;;;;17.33;7.38;;;18.00;60.40;;;;;;10439265;28;20021;-57
2021/03/24 14:19:14;;;;;;;12.05;8.27;;;18.00;60.10;;;;;;10453583;28;20084;-58
2021/03/24 14:24:44;;;;;;;11.75;6.38;;;18.00;60.10;;;;;;10453269;28;20044;-58
2021/03/24 14:30:17;;;;;;;;;;;18.00;60.30;;;;;;10445814;28;20044;-58
2021/03/24 14:35:34;;;;;;;18.13;6.90;;;18.00;60.40;;;;;;10442802;28;19974;-57
2021/03/24 14:40:41;;;;;;;14.43;6.60;;;18.00;60.40;;;;;;10455269;28;20047;-57
2021/03/24 14:45:48;;;;;;;18.48;7.78;;;18.00;60.40;;;;;;10456244;28;20112;-57
2021/03/24 14:50:59;;;;;;;14.60;6.85;;;18.10;60.40;;;;;;10473297;28;20070;-58
2021/03/24 14:56:05;;;;;;;14.60;7.68;;;18.00;60.40;;;;;;10496234;28;20064;-58
2021/03/24 15:01:43;;;;;;;10.40;6.55;;;18.00;60.40;;;;;;10480481;28;20135;-58
2021/03/24 15:06:50;;;;;;;12.73;7.00;;;18.00;60.20;;;;;;10446537;28;20107;-58
2021/03/24 15:12:15;;;;;;;12.88;6.50;;;17.90;60.30;;;;;;10455270;28;20032;-58
2021/03/24 15:17:45;;;;;;;12.25;7.32;;;17.90;60.40;;;;;;10455179;28;20028;-57
2021/03/24 15:22:51;;;;;;;;;;;17.90;60.30;;;;;;10462918;28;20076;-57
2021/03/24 15:28:01;;;;;;;13.68;6.38;;;17.80;60.40;;;;;;10442061;28;19921;-58
2021/03/24 15:33:13;;;;;;;;;;;17.80;60.40;;;;;;10482426;28;20060;-57
2021/03/24 15:38:22;;;;;;;8.95;6.97;;;17.80;60.40;;;;;;10451471;28;19920;-57
2021/03/24 15:43:23;;;;;;;13.25;6.40;;;17.80;60.50;;;;;;10454372;28;20033;-57
2021/03/24 15:48:36;;;;;;;12.15;7.63;;;17.70;60.20;;;;;;10454081;28;20416;-57
2021/03/24 15:53:42;;;;;;;15.00;7.47;;;17.70;60.10;;;;;;10487674;28;20339;-58
2021/03/24 15:58:58;;;;;;;20.52;7.80;;;17.80;60.20;;;;;;10455496;28;20432;-57
2021/03/24 16:04:11;;;;;;;14.35;7.40;;;17.70;60.70;;;;;;10461453;28;20040;-57
2021/03/24 16:09:20;;;;;;;19.60;8.40;;;17.80;60.90;;;;;;10469752;28;20063;-58
2021/03/24 16:14:48;;;;;;;19.02;7.85;;;17.80;60.90;;;;;;10464443;28;20083;-60
2021/03/24 16:20:17;;;;;;;23.17;7.25;;;17.80;60.80;;;;;;10455138;28;20043;-60
2021/03/24 16:25:51;;;;;;;33.88;9.02;;;17.80;60.70;;;;;;10461521;28;20043;-60
2021/03/24 16:31:43;;;;;;;19.25;8.02;;;17.80;60.90;;;;;;10465419;28;20090;-62
2021/03/24 16:37:26;;;;;;;19.90;7.75;;;17.80;60.90;;;;;;10461439;28;20131;-61
2021/03/24 16:43:10;;;;;;;24.77;10.60;;;17.70;61.10;;;;;;10452251;28;20021;-60
2021/03/24 16:48:49;;;;;;;21.25;8.25;;;17.90;64.90;;;;;;10441882;28;20026;-60
2021/03/24 16:54:29;;;;;;;24.95;8.57;;;17.90;61.90;;;;;;10450980;28;20029;-59
2021/03/24 16:59:53;;;;;;;21.52;9.13;;;17.80;60.90;;;;;;10459914;28;20040;-60
2021/03/24 17:05:28;;;;;;;22.70;9.63;;;17.80;61.10;;;;;;10472429;28;20037;-60
2021/03/24 17:10:49;;;;;;;24.63;10.27;;;17.80;63.00;;;;;;10484679;28;20417;-60
2021/03/24 17:16:16;;;;;;;26.67;9.48;;;17.80;62.90;;;;;;10482844;28;20036;-60
2021/03/24 17:21:56;;;;;;;20.58;9.10;;;17.80;62.70;;;;;;10463053;28;20092;-59
2021/03/24 17:27:10;;;;;;;15.55;8.48;;;17.90;62.60;;;;;;10472416;28;20036;-60
2021/03/24 17:32:46;;;;;;;17.52;8.30;;;18.00;62.30;;;;;;10458663;28;20107;-60
2021/03/24 17:38:07;;;;;;;20.95;9.02;;;17.90;62.30;;;;;;10435419;28;20049;-57
2021/03/24 17:43:27;;;;;;;20.90;8.23;;;17.90;62.90;;;;;;10457807;28;20033;-59
2021/03/24 17:49:18;;;;;;;20.58;8.27;;;17.90;62.50;;;;;;10457278;28;20503;-59
2021/03/24 17:54:44;;;;;;;13.70;8.10;;;17.80;62.80;;;;;;10461147;28;20068;-60
2021/03/24 18:00:10;;;;;;;21.95;8.20;;;17.80;62.90;;;;;;10498390;28;20275;-60
2021/03/24 18:05:27;;;;;;;13.48;7.45;;;17.80;63.00;;;;;;10480280;28;20037;-59
2021/03/24 18:10:38;;;;;;;20.65;8.50;;;17.70;62.80;;;;;;10490294;28;20056;-60
2021/03/24 18:15:42;;;;;;;14.60;6.75;;;17.70;62.50;;;;;;10462186;28;20658;-59
2021/03/24 18:21:13;;;;;;;14.48;7.40;;;17.70;62.40;;;;;;10455062;28;20060;-60
2021/03/24 18:26:20;;;;;;;14.20;7.88;;;17.60;62.20;;;;;;10454117;28;20025;-58
2021/03/24 18:31:45;;;;;;;16.88;7.32;;;17.60;62.30;;;;;;10455134;28;20028;-59
2021/03/24 18:36:59;;;;;;;14.45;6.95;;;17.60;62.40;;;;;;10449519;28;20036;-59
2021/03/24 18:42:08;;;;;;;14.70;7.38;;;17.60;62.30;;;;;;10453818;28;20039;-58
2021/03/24 18:47:40;;;;;;;20.77;7.53;;;17.60;63.40;;;;;;10456001;28;20033;-58
2021/03/24 18:52:45;;;;;;;15.27;7.38;;;17.60;62.90;;;;;;10452773;28;20052;-58
2021/03/24 18:57:47;;;;;;;10.52;6.47;;;17.70;62.80;;;;;;10470561;28;20060;-59
2021/03/24 19:02:49;;;;;;;13.02;7.72;;;17.70;63.00;;;;;;10454790;28;20041;-58
2021/03/24 19:07:50;;;;;;;10.15;6.50;;;17.60;62.70;;;;;;10480854;28;20119;-58
2021/03/24 19:13:02;;;;;;;13.77;7.88;;;17.60;62.70;;;;;;10487494;28;20033;-58
2021/03/24 19:18:04;;;;;;;13.93;6.80;;;17.60;62.60;;;;;;10452827;28;20029;-58
2021/03/24 19:23:05;;;;;;;13.00;6.75;;;17.60;62.60;;;;;;10453661;28;20044;-58
2021/03/24 19:28:08;;;;;;;11.73;7.78;;;17.50;62.40;;;;;;10471631;28;20040;-59
2021/03/24 19:33:29;;;;;;;11.40;6.80;;;17.50;62.30;;;;;;10453248;28;20452;-59
2021/03/24 19:38:35;;;;;;;11.35;7.40;;;17.50;62.30;;;;;;10454737;28;20083;-59
2021/03/24 19:43:42;;;;;;;15.35;7.13;;;17.60;62.30;;;;;;10462131;28;20039;-60
2021/03/24 19:48:44;;;;;;;11.15;7.53;;;17.60;62.20;;;;;;10461519;28;20380;-59
2021/03/24 19:53:45;;;;;;;11.45;7.75;;;17.60;62.20;;;;;;10462147;28;20378;-60
2021/03/24 19:58:52;;;;;;;12.32;7.38;;;17.60;62.20;;;;;;10460689;28;20029;-60
2021/03/24 20:04:06;;;;;;;11.57;7.22;;;17.60;62.10;;;;;;10458572;28;20032;-58
2021/03/24 20:09:33;;;;;;;11.73;7.90;;;17.60;62.20;;;;;;10453600;28;20036;-57
2021/03/24 20:14:41;;;;;;;11.10;6.93;;;17.60;61.90;;;;;;10458276;28;20052;-58
2021/03/24 20:19:45;;;;;;;14.63;6.55;;;17.50;61.60;;;;;;10459354;28;20500;-58
2021/03/24 20:24:47;;;;;;;9.50;6.78;;;17.50;61.60;;;;;;10460854;28;20037;-58
2021/03/24 20:29:49;;;;;;;11.75;6.95;;;17.50;61.50;;;;;;10461180;28;20120;-58
2021/03/24 20:35:22;;;;;;;10.25;6.18;;;17.50;61.30;;;;;;10460235;28;20048;-58
2021/03/24 20:40:40;;;;;;;10.70;6.30;;;17.50;61.20;;;;;;10460291;28;20354;-58
2021/03/24 20:45:44;;;;;;;12.57;6.60;;;17.50;61.00;;;;;;10467846;28;20032;-58
2021/03/24 20:50:52;;;;;;;8.73;6.03;;;17.50;60.90;;;;;;10458724;28;20033;-58
2021/03/24 20:55:54;;;;;;;10.25;6.75;;;17.50;60.70;;;;;;10454791;28;20584;-58
2021/03/24 21:00:56;;;;;;;8.60;6.50;;;17.60;60.70;;;;;;10475951;28;20040;-58
2021/03/24 21:05:59;;;;;;;9.82;5.90;;;17.60;60.50;;;;;;10461355;28;20033;-58
2021/03/24 21:11:02;;;;;;;8.93;6.43;;;17.60;60.40;;;;;;10475307;28;20116;-58
2021/03/24 21:16:08;;;;;;;8.82;5.85;;;17.60;60.30;;;;;;10459472;28;20029;-58
2021/03/24 21:21:25;;;;;;;7.80;5.75;;;17.60;60.20;;;;;;10459164;28;20074;-58
2021/03/24 21:26:31;;;;;;;8.30;5.85;;;17.60;60.10;;;;;;10459218;28;20029;-58
2021/03/24 21:31:32;;;;;;;9.73;5.63;;;17.60;60.10;;;;;;10459098;28;20033;-58
2021/03/24 21:36:33;;;;;;;7.07;6.20;;;17.60;59.90;;;;;;10458369;28;20029;-58
2021/03/24 21:41:34;;;;;;;8.07;5.70;;;17.60;59.80;;;;;;10458232;28;20033;-58
2021/03/24 21:46:49;;;;;;;6.78;5.15;;;17.60;59.70;;;;;;10458033;28;20039;-58
2021/03/24 21:51:50;;;;;;;7.75;4.88;;;17.60;59.60;;;;;;10474767;28;20178;-58
2021/03/24 21:57:04;;;;;;;8.07;5.65;;;17.60;59.50;;;;;;10457559;28;20033;-58
2021/03/24 22:02:36;;;;;;;8.35;6.07;;;17.70;59.50;;;;;;10456067;28;20029;-58
2021/03/24 22:07:39;;;;;;;8.13;5.50;;;17.70;59.30;;;;;;10472647;28;20109;-58
2021/03/24 22:12:50;;;;;;;7.72;5.15;;;17.70;59.20;;;;;;10457439;28;20032;-58
2021/03/24 22:18:09;;;;;;;7.65;5.20;;;17.70;59.10;;;;;;10471060;28;20489;-58
2021/03/24 22:23:13;;;;;;;8.65;5.88;;;17.70;59.70;;;;;;10457337;28;20102;-58
2021/03/24 22:28:52;;;;;;;7.32;5.25;;;17.70;59.10;;;;;;10456743;28;20489;-58
2021/03/24 22:34:06;;;;;;;8.17;5.67;;;17.70;59.10;;;;;;10453153;28;20060;-58
2021/03/24 22:39:15;;;;;;;7.20;5.60;;;17.70;59.00;;;;;;10471625;28;20035;-58
2021/03/24 22:44:34;;;;;;;;;;;17.70;59.00;;;;;;10456424;28;20048;-58
2021/03/24 22:49:46;;;;;;;7.43;5.53;;;17.60;58.80;;;;;;10452169;28;19916;-58
2021/03/24 22:55:09;;;;;;;8.48;5.90;;;17.60;58.90;;;;;;10455898;28;20025;-58
2021/03/24 23:00:21;;;;;;;7.43;4.75;;;17.60;58.80;;;;;;10453914;28;20379;-58
2021/03/24 23:05:23;;;;;;;7.80;4.88;;;17.70;58.70;;;;;;10455532;28;20474;-58
2021/03/24 23:10:27;;;;;;;7.65;5.13;;;17.70;58.60;;;;;;10455226;28;20037;-58
2021/03/24 23:16:10;;;;;;;5.53;4.53;;;17.70;58.50;;;;;;10452075;28;20020;-58
2021/03/24 23:21:17;;;;;;;9.57;5.78;;;17.70;58.50;;;;;;10453652;28;20510;-58
2021/03/24 23:26:21;;;;;;;7.32;4.57;;;17.70;58.50;;;;;;10453829;28;20115;-58
2021/03/24 23:31:22;;;;;;;7.15;5.00;;;17.70;58.40;;;;;;10454834;28;20044;-58
2021/03/24 23:36:22;;;;;;;6.47;5.15;;;17.70;58.30;;;;;;10454682;28;20025;-58
2021/03/24 23:41:24;;;;;;;6.80;5.47;;;17.70;58.30;;;;;;10453956;28;20115;-58
2021/03/24 23:46:25;;;;;;;7.15;5.45;;;17.70;58.30;;;;;;10453273;28;20025;-58
2021/03/24 23:51:25;;;;;;;7.90;5.32;;;17.70;58.20;;;;;;10452718;28;20470;-58
2021/03/24 23:56:34;;;;;;;7.55;4.82;;;17.60;58.20;;;;;;10456765;28;20115;-58
